createdAt,value
2017-12-12T00:02:53.557Z,977.15
2017-12-12T00:07:49.122Z,977.20
2017-12-12T00:12:45.732Z,977.34
2017-12-12T00:17:42.356Z,977.46
2017-12-12T00:22:37.605Z,977.58
2017-12-12T00:27:33.208Z,977.71
2017-12-12T00:32:28.870Z,977.87
2017-12-12T00:37:24.499Z,978.07
2017-12-12T00:42:20.266Z,978.21
2017-12-12T00:47:16.568Z,978.48
2017-12-12T00:52:13.385Z,978.65
2017-12-12T00:57:08.869Z,978.88
2017-12-12T01:02:04.773Z,979.05
2017-12-12T01:07:01.189Z,979.11
2017-12-12T01:11:57.057Z,979.40
2017-12-12T01:16:52.727Z,979.56
2017-12-12T01:21:49.132Z,979.68
2017-12-12T01:26:45.761Z,979.97
2017-12-12T01:31:41.022Z,980.26
2017-12-12T01:36:36.698Z,980.40
2017-12-12T01:41:32.771Z,980.55
2017-12-12T01:46:28.483Z,980.70
2017-12-12T01:51:23.994Z,980.84
2017-12-12T01:56:19.683Z,981.10
2017-12-12T02:01:15.241Z,981.28
2017-12-12T02:06:10.874Z,981.51
2017-12-12T02:11:07.183Z,981.68
2017-12-12T02:16:02.804Z,981.91
2017-12-12T02:20:59.254Z,982.02
2017-12-12T02:25:54.576Z,982.28
2017-12-12T02:30:50.309Z,982.47
2017-12-12T02:35:45.867Z,982.69
2017-12-12T02:40:41.413Z,982.84
2017-12-12T02:45:37.041Z,983.00
2017-12-12T02:50:32.723Z,983.14
2017-12-12T02:55:29.290Z,983.42
2017-12-12T03:00:24.401Z,983.54
2017-12-12T03:05:20.095Z,983.63
2017-12-12T03:10:16.018Z,983.97
2017-12-12T03:15:11.835Z,984.07
2017-12-12T03:20:08.451Z,984.21
2017-12-12T03:25:03.822Z,984.47
2017-12-12T03:29:59.386Z,984.62
2017-12-12T03:34:55.014Z,984.79
2017-12-12T03:39:50.556Z,985.02
2017-12-12T03:44:47.157Z,985.30
2017-12-12T03:49:42.549Z,985.54
2017-12-12T03:54:38.235Z,985.73
2017-12-12T03:59:34.907Z,985.85
2017-12-12T04:04:31.452Z,986.12
2017-12-12T04:09:27.374Z,986.34
2017-12-12T04:14:23.944Z,986.52
2017-12-12T04:19:19.007Z,986.66
2017-12-12T04:24:16.971Z,986.81
2017-12-12T04:29:13.232Z,987.04
2017-12-12T04:34:09.672Z,987.15
2017-12-12T04:39:05.587Z,987.43
2017-12-12T04:44:01.590Z,987.64
2017-12-12T04:48:58.229Z,987.85
2017-12-12T04:53:53.569Z,988.07
2017-12-12T04:58:49.255Z,988.22
2017-12-12T05:03:45.991Z,988.45
2017-12-12T05:08:41.806Z,988.66
2017-12-12T05:13:38.366Z,988.78
2017-12-12T05:18:33.694Z,988.97
2017-12-12T05:23:29.331Z,989.28
2017-12-12T05:28:25.963Z,989.34
2017-12-12T05:33:21.374Z,989.50
2017-12-12T05:38:17.796Z,989.70
2017-12-12T05:43:13.224Z,989.78
2017-12-12T05:48:08.927Z,990.03
2017-12-12T05:53:05.629Z,990.06
2017-12-12T05:58:00.998Z,990.17
2017-12-12T06:02:56.795Z,990.25
2017-12-12T06:07:53.392Z,990.42
2017-12-12T06:12:49.908Z,990.58
2017-12-12T06:17:46.462Z,990.70
2017-12-12T06:22:42.130Z,990.93
2017-12-12T06:27:38.907Z,991.05
2017-12-12T06:32:34.260Z,991.19
2017-12-12T06:37:30.812Z,991.29
2017-12-12T06:42:26.242Z,991.54
2017-12-12T06:47:21.934Z,991.72
2017-12-12T06:52:17.495Z,991.79
2017-12-12T06:57:13.337Z,991.89
2017-12-12T07:02:09.054Z,992.12
2017-12-12T07:07:04.939Z,992.17
2017-12-12T07:12:01.564Z,992.45
2017-12-12T07:16:56.826Z,992.54
2017-12-12T07:21:53.605Z,992.68
2017-12-12T07:26:49.054Z,992.83
2017-12-12T07:31:44.900Z,993.04
2017-12-12T07:36:41.653Z,993.17
2017-12-12T07:41:38.149Z,993.30
2017-12-12T07:46:33.461Z,993.37
2017-12-12T07:51:29.781Z,993.54
2017-12-12T07:56:25.343Z,993.60
2017-12-12T08:01:21.231Z,993.78
2017-12-12T08:06:17.686Z,993.91
2017-12-12T08:11:13.007Z,994.06
2017-12-12T08:16:09.440Z,994.17
2017-12-12T08:21:06.764Z,994.30
2017-12-12T08:26:03.248Z,994.56
2017-12-12T08:30:58.749Z,994.60
2017-12-12T08:35:54.510Z,994.64
2017-12-12T08:40:51.303Z,994.74
2017-12-12T08:45:46.558Z,994.92
2017-12-12T08:50:42.186Z,995.04
2017-12-12T08:55:37.884Z,995.05
2017-12-12T09:00:33.770Z,995.10
2017-12-12T09:05:29.391Z,995.27
2017-12-12T09:10:25.090Z,995.50
2017-12-12T09:15:20.750Z,995.57
2017-12-12T09:20:16.552Z,995.62
2017-12-12T09:25:12.066Z,995.67
2017-12-12T09:30:07.834Z,996.03
2017-12-12T09:35:04.691Z,996.06
2017-12-12T09:39:59.961Z,996.25
2017-12-12T09:44:55.592Z,996.37
2017-12-12T09:49:51.291Z,996.51
2017-12-12T09:54:46.776Z,996.57
2017-12-12T09:59:42.422Z,996.78
2017-12-12T10:04:38.593Z,996.80
2017-12-12T10:09:35.382Z,996.87
2017-12-12T10:14:31.446Z,997.06
2017-12-12T10:19:27.100Z,997.15
2017-12-12T10:24:23.628Z,997.22
2017-12-12T10:29:19.060Z,997.24
2017-12-12T10:34:14.836Z,997.41
2017-12-12T10:39:10.477Z,997.46
2017-12-12T10:44:06.045Z,997.61
2017-12-12T10:49:01.640Z,997.61
2017-12-12T10:53:58.346Z,997.80
2017-12-12T10:58:53.675Z,998.03
2017-12-12T11:03:49.357Z,998.05
2017-12-12T11:08:46.656Z,998.29
2017-12-12T11:13:42.003Z,998.37
2017-12-12T11:18:37.509Z,998.39
2017-12-12T11:23:33.132Z,998.58
2017-12-12T11:28:28.953Z,998.64
2017-12-12T11:33:24.773Z,998.79
2017-12-12T11:38:20.423Z,998.79
2017-12-12T11:43:16.015Z,998.93
2017-12-12T11:48:12.767Z,998.90
2017-12-12T11:53:07.913Z,999.02
2017-12-12T11:58:03.638Z,999.08
2017-12-12T12:03:00.357Z,999.09
2017-12-12T12:07:55.801Z,999.25
2017-12-12T12:12:51.679Z,999.32
2017-12-12T12:17:48.653Z,999.32
2017-12-12T12:22:45.944Z,999.43
2017-12-12T12:27:41.080Z,999.55
2017-12-12T12:32:36.828Z,999.77
2017-12-12T12:37:33.716Z,999.81
2017-12-12T12:42:29.748Z,999.86
2017-12-12T12:47:25.515Z,1000.04
2017-12-12T12:52:22.435Z,1000.20
2017-12-12T12:57:17.813Z,1000.20
2017-12-12T13:02:13.557Z,1000.29
2017-12-12T13:07:10.428Z,1000.35
2017-12-12T13:12:05.825Z,1000.45
2017-12-12T13:17:01.793Z,1000.53
2017-12-12T13:21:57.609Z,1000.67
2017-12-12T13:26:53.672Z,1000.66
2017-12-12T13:31:49.358Z,1000.88
2017-12-12T13:36:45.075Z,1000.96
2017-12-12T13:41:41.548Z,1001.04
2017-12-12T13:46:37.905Z,1001.12
2017-12-12T13:51:33.597Z,1001.27
2017-12-12T13:56:31.429Z,1001.25
2017-12-12T14:01:26.348Z,1001.39
2017-12-12T14:06:22.014Z,1001.42
2017-12-12T14:11:17.639Z,1001.52
2017-12-12T14:16:13.410Z,1001.72
2017-12-12T14:21:09.246Z,1001.84
2017-12-12T14:26:04.998Z,1001.84
2017-12-12T14:31:01.419Z,1001.97
2017-12-12T14:35:57.056Z,1002.02
2017-12-12T14:40:53.670Z,1002.11
2017-12-12T14:45:48.976Z,1002.26
2017-12-12T14:50:44.521Z,1002.40
2017-12-12T14:55:41.061Z,1002.51
2017-12-12T15:00:37.474Z,1002.70
2017-12-12T15:05:32.438Z,1002.71
2017-12-12T15:10:28.312Z,1002.82
2017-12-12T15:15:24.093Z,1003.01
2017-12-12T15:20:19.657Z,1002.98
2017-12-12T15:25:16.208Z,1003.08
2017-12-12T15:30:11.654Z,1003.10
2017-12-12T15:35:07.176Z,1003.23
2017-12-12T15:40:03.795Z,1003.31
2017-12-12T15:45:00.092Z,1003.44
2017-12-12T15:49:56.281Z,1003.54
2017-12-12T15:54:51.405Z,1003.57
2017-12-12T15:59:47.878Z,1003.93
2017-12-12T16:04:44.174Z,1003.99
2017-12-12T16:09:39.547Z,1004.03
2017-12-12T16:14:35.759Z,1004.19
2017-12-12T16:19:31.607Z,1004.27
2017-12-12T16:24:27.381Z,1004.28
2017-12-12T16:29:24.082Z,1004.38
2017-12-12T16:34:19.245Z,1004.53
2017-12-12T16:39:15.255Z,1004.65
2017-12-12T16:44:10.954Z,1004.61
2017-12-12T16:49:06.636Z,1004.68
2017-12-12T16:54:02.284Z,1004.81
2017-12-12T16:58:58.150Z,1004.83
2017-12-12T17:03:53.445Z,1004.85
2017-12-12T17:08:49.161Z,1004.88
2017-12-12T17:13:45.927Z,1004.92
2017-12-12T17:18:42.516Z,1004.95
2017-12-12T17:23:37.857Z,1005.05
2017-12-12T17:28:34.623Z,1005.07
2017-12-12T17:33:30.145Z,1005.15
2017-12-12T17:38:25.954Z,1005.21
2017-12-12T17:43:21.667Z,1005.31
2017-12-12T17:48:18.434Z,1005.46
2017-12-12T17:53:14.148Z,1005.40
2017-12-12T17:58:10.162Z,1005.44
2017-12-12T18:03:05.740Z,1005.50
2017-12-12T18:08:01.408Z,1005.55
2017-12-12T18:12:58.164Z,1005.66
2017-12-12T18:17:53.496Z,1005.79
2017-12-12T18:22:48.934Z,1005.77
2017-12-12T18:27:44.341Z,1005.77
2017-12-12T18:32:40.040Z,1005.84
2017-12-12T18:37:35.856Z,1005.99
2017-12-12T18:42:33.132Z,1006.07
2017-12-12T18:47:29.475Z,1006.13
2017-12-12T18:52:24.771Z,1006.14
2017-12-12T18:57:20.496Z,1006.21
2017-12-12T19:02:16.255Z,1006.30
2017-12-12T19:07:12.032Z,1006.27
2017-12-12T19:12:07.709Z,1006.22
2017-12-12T19:17:03.275Z,1006.28
2017-12-12T19:21:59.287Z,1006.20
2017-12-12T19:26:55.029Z,1006.30
2017-12-12T19:31:50.816Z,1006.40
2017-12-12T19:36:46.453Z,1006.33
2017-12-12T19:41:42.097Z,1006.43
2017-12-12T19:46:38.091Z,1006.47
2017-12-12T19:51:33.827Z,1006.55
2017-12-12T19:56:30.767Z,1006.55
2017-12-12T20:01:26.085Z,1006.70
2017-12-12T20:06:21.573Z,1006.62
2017-12-12T20:11:18.933Z,1006.64
2017-12-12T20:16:14.970Z,1006.61
2017-12-12T20:21:10.462Z,1006.67
2017-12-12T20:26:06.039Z,1006.69
2017-12-12T20:31:01.805Z,1006.81
2017-12-12T20:35:57.421Z,1006.72
2017-12-12T20:40:53.229Z,1006.68
2017-12-12T20:45:49.758Z,1006.75
2017-12-12T20:50:45.186Z,1006.67
2017-12-12T20:55:41.918Z,1006.59
2017-12-12T21:00:37.954Z,1006.52
2017-12-12T21:05:33.561Z,1006.51
2017-12-12T21:10:29.629Z,1006.51
2017-12-12T21:15:26.271Z,1006.46
2017-12-12T21:20:21.651Z,1006.60
2017-12-12T21:25:17.336Z,1006.57
2017-12-12T21:30:13.037Z,1006.63
2017-12-12T21:35:09.465Z,1006.56
2017-12-12T21:40:04.669Z,1006.60
2017-12-12T21:45:01.431Z,1006.60
2017-12-12T21:49:57.752Z,1006.65
2017-12-12T21:54:53.487Z,1006.57
2017-12-12T21:59:49.957Z,1006.51
2017-12-12T22:04:45.375Z,1006.53
2017-12-12T22:09:42.825Z,1006.49
2017-12-12T22:14:38.891Z,1006.53
2017-12-12T22:19:35.559Z,1006.56
2017-12-12T22:24:31.078Z,1006.60
2017-12-12T22:29:26.777Z,1006.58
2017-12-12T22:34:23.339Z,1006.48
2017-12-12T22:39:18.756Z,1006.49
2017-12-12T22:44:14.744Z,1006.48
2017-12-12T22:49:10.432Z,1006.53
2017-12-12T22:54:05.905Z,1006.66
2017-12-12T22:59:02.495Z,1006.69
2017-12-12T23:03:58.166Z,1006.61
2017-12-12T23:08:56.647Z,1006.64
2017-12-12T23:13:52.082Z,1006.55
2017-12-12T23:18:47.819Z,1006.58
2017-12-12T23:23:43.563Z,1006.60
2017-12-12T23:28:39.191Z,1006.53
2017-12-12T23:33:34.896Z,1006.38
2017-12-12T23:38:31.826Z,1006.39
2017-12-12T23:43:28.115Z,1006.46
2017-12-12T23:48:23.731Z,1006.36
2017-12-12T23:53:20.178Z,1006.37
2017-12-12T23:58:16.637Z,1006.44
